sensor_id;sensor_type;location;lat;lon;timestamp;temperature;humidity
3312;DHT22;1668;49.648;8.570;2023-03-31T00:01:13;11.00;1.00
3312;DHT22;1668;49.648;8.570;2023-03-31T00:03:39;11.00;1.00
3312;DHT22;1668;49.648;8.570;2023-03-31T00:06:09;11.00;1.00
3312;DHT22;1668;49.648;8.570;2023-03-31T00:08:36;11.00;1.00
3312;DHT22;1668;49.648;8.570;2023-03-31T00:11:07;10.90;1.00
3312;DHT22;1668;49.648;8.570;2023-03-31T00:13:34;10.90;1.00
3312;DHT22;1668;49.648;8.570;2023-03-31T00:16:03;10.90;1.00
3312;DHT22;1668;49.648;8.570;2023-03-31T00:18:31;10.90;1.00
3312;DHT22;1668;49.648;8.570;2023-03-31T00:21:06;10.90;1.00
3312;DHT22;1668;49.648;8.570;2023-03-31T00:23:33;10.90;1.00
3312;DHT22;1668;49.648;8.570;2023-03-31T00:29:24;10.90;1.00
3312;DHT22;1668;49.648;8.570;2023-03-31T00:31:51;10.90;1.00
3312;DHT22;1668;49.648;8.570;2023-03-31T00:34:18;10.90;1.00
3312;DHT22;1668;49.648;8.570;2023-03-31T00:36:45;10.90;1.00
3312;DHT22;1668;49.648;8.570;2023-03-31T00:39:13;10.90;1.00
3312;DHT22;1668;49.648;8.570;2023-03-31T00:41:42;10.90;1.00
3312;DHT22;1668;49.648;8.570;2023-03-31T00:44:11;10.90;1.00
3312;DHT22;1668;49.648;8.570;2023-03-31T00:46:48;10.90;1.00
3312;DHT22;1668;49.648;8.570;2023-03-31T00:49:20;10.80;1.00
3312;DHT22;1668;49.648;8.570;2023-03-31T00:51:50;10.90;1.00
3312;DHT22;1668;49.648;8.570;2023-03-31T00:54:20;10.80;1.00
3312;DHT22;1668;49.648;8.570;2023-03-31T00:56:50;10.80;1.00
3312;DHT22;1668;49.648;8.570;2023-03-31T00:59:21;10.80;1.00
3312;DHT22;1668;49.648;8.570;2023-03-31T01:01:53;10.80;1.00
3312;DHT22;1668;49.648;8.570;2023-03-31T01:04:29;10.80;1.00
3312;DHT22;1668;49.648;8.570;2023-03-31T01:07:02;10.80;1.00
3312;DHT22;1668;49.648;8.570;2023-03-31T01:09:30;10.80;1.00
3312;DHT22;1668;49.648;8.570;2023-03-31T01:12:00;10.80;1.00
3312;DHT22;1668;49.648;8.570;2023-03-31T01:14:27;10.80;1.00
3312;DHT22;1668;49.648;8.570;2023-03-31T01:16:55;10.80;1.00
3312;DHT22;1668;49.648;8.570;2023-03-31T01:19:28;10.80;1.00
3312;DHT22;1668;49.648;8.570;2023-03-31T01:25:26;10.80;1.00
3312;DHT22;1668;49.648;8.570;2023-03-31T01:28:20;10.80;1.00
3312;DHT22;1668;49.648;8.570;2023-03-31T01:31:17;10.90;1.00
3312;DHT22;1668;49.648;8.570;2023-03-31T01:34:02;10.90;1.00
3312;DHT22;1668;49.648;8.570;2023-03-31T01:36:54;10.90;1.00
3312;DHT22;1668;49.648;8.570;2023-03-31T01:39:57;10.90;1.00
3312;DHT22;1668;49.648;8.570;2023-03-31T01:42:31;10.90;1.00
3312;DHT22;1668;49.648;8.570;2023-03-31T01:45:04;10.90;1.00
3312;DHT22;1668;49.648;8.570;2023-03-31T01:47:37;10.90;1.00
3312;DHT22;1668;49.648;8.570;2023-03-31T01:50:09;10.90;1.00
3312;DHT22;1668;49.648;8.570;2023-03-31T01:52:42;10.90;1.00
3312;DHT22;1668;49.648;8.570;2023-03-31T01:55:18;10.90;99.90
3312;DHT22;1668;49.648;8.570;2023-03-31T01:57:52;10.90;99.90
3312;DHT22;1668;49.648;8.570;2023-03-31T02:00:24;10.90;99.90
3312;DHT22;1668;49.648;8.570;2023-03-31T02:02:57;10.90;99.90
3312;DHT22;1668;49.648;8.570;2023-03-31T02:05:31;10.90;99.90
3312;DHT22;1668;49.648;8.570;2023-03-31T02:08:05;10.90;99.90
3312;DHT22;1668;49.648;8.570;2023-03-31T02:10:35;10.90;99.90
3312;DHT22;1668;49.648;8.570;2023-03-31T02:13:04;10.80;99.90
3312;DHT22;1668;49.648;8.570;2023-03-31T02:15:34;10.90;99.90
3312;DHT22;1668;49.648;8.570;2023-03-31T02:18:03;10.80;99.90
3312;DHT22;1668;49.648;8.570;2023-03-31T02:20:37;10.90;99.90
3312;DHT22;1668;49.648;8.570;2023-03-31T02:23:08;10.90;99.90
3312;DHT22;1668;49.648;8.570;2023-03-31T02:25:41;10.90;99.90
3312;DHT22;1668;49.648;8.570;2023-03-31T02:28:15;10.90;99.90
3312;DHT22;1668;49.648;8.570;2023-03-31T02:30:49;10.90;99.90
3312;DHT22;1668;49.648;8.570;2023-03-31T02:33:18;10.90;99.90
3312;DHT22;1668;49.648;8.570;2023-03-31T02:35:45;11.00;99.90
3312;DHT22;1668;49.648;8.570;2023-03-31T02:38:12;11.00;99.90
3312;DHT22;1668;49.648;8.570;2023-03-31T02:40:41;11.00;99.90
3312;DHT22;1668;49.648;8.570;2023-03-31T02:43:08;11.00;99.90
3312;DHT22;1668;49.648;8.570;2023-03-31T02:45:39;11.00;1.00
3312;DHT22;1668;49.648;8.570;2023-03-31T02:48:10;11.00;1.00
3312;DHT22;1668;49.648;8.570;2023-03-31T02:50:50;11.00;1.00
3312;DHT22;1668;49.648;8.570;2023-03-31T02:53:28;11.00;1.00
3312;DHT22;1668;49.648;8.570;2023-03-31T02:56:10;11.00;1.00
3312;DHT22;1668;49.648;8.570;2023-03-31T02:58:48;11.00;1.00
3312;DHT22;1668;49.648;8.570;2023-03-31T03:01:31;11.00;1.00
3312;DHT22;1668;49.648;8.570;2023-03-31T03:04:10;11.00;99.90
3312;DHT22;1668;49.648;8.570;2023-03-31T03:06:47;11.00;99.90
3312;DHT22;1668;49.648;8.570;2023-03-31T03:09:27;11.00;1.00
3312;DHT22;1668;49.648;8.570;2023-03-31T03:12:07;11.00;1.00
3312;DHT22;1668;49.648;8.570;2023-03-31T03:14:42;11.00;1.00
3312;DHT22;1668;49.648;8.570;2023-03-31T03:17:13;11.00;1.00
3312;DHT22;1668;49.648;8.570;2023-03-31T03:19:42;11.00;99.90
3312;DHT22;1668;49.648;8.570;2023-03-31T03:22:09;11.00;99.90
3312;DHT22;1668;49.648;8.570;2023-03-31T03:24:36;11.00;99.90
3312;DHT22;1668;49.648;8.570;2023-03-31T03:27:05;10.90;1.00
3312;DHT22;1668;49.648;8.570;2023-03-31T03:29:32;10.90;1.00
3312;DHT22;1668;49.648;8.570;2023-03-31T03:31:59;10.90;1.00
3312;DHT22;1668;49.648;8.570;2023-03-31T03:34:26;10.90;1.00
3312;DHT22;1668;49.648;8.570;2023-03-31T03:36:53;10.90;1.00
3312;DHT22;1668;49.648;8.570;2023-03-31T03:39:20;10.80;1.00
3312;DHT22;1668;49.648;8.570;2023-03-31T03:41:46;10.80;1.00
3312;DHT22;1668;49.648;8.570;2023-03-31T03:44:15;10.80;1.00
3312;DHT22;1668;49.648;8.570;2023-03-31T03:46:42;10.80;1.00
3312;DHT22;1668;49.648;8.570;2023-03-31T03:49:09;10.80;1.00
3312;DHT22;1668;49.648;8.570;2023-03-31T03:51:36;10.70;1.00
3312;DHT22;1668;49.648;8.570;2023-03-31T03:54:03;10.70;1.00
3312;DHT22;1668;49.648;8.570;2023-03-31T03:56:29;10.70;1.00
3312;DHT22;1668;49.648;8.570;2023-03-31T03:58:56;10.70;1.00
3312;DHT22;1668;49.648;8.570;2023-03-31T04:01:24;10.70;1.00
3312;DHT22;1668;49.648;8.570;2023-03-31T04:03:51;10.70;1.00
3312;DHT22;1668;49.648;8.570;2023-03-31T04:06:18;10.70;1.00
3312;DHT22;1668;49.648;8.570;2023-03-31T04:08:45;10.70;1.00
3312;DHT22;1668;49.648;8.570;2023-03-31T04:11:13;10.70;1.00
3312;DHT22;1668;49.648;8.570;2023-03-31T04:13:42;10.70;1.00
3312;DHT22;1668;49.648;8.570;2023-03-31T04:16:09;10.70;1.00
3312;DHT22;1668;49.648;8.570;2023-03-31T04:18:37;10.70;1.00
3312;DHT22;1668;49.648;8.570;2023-03-31T04:21:07;10.70;1.00
3312;DHT22;1668;49.648;8.570;2023-03-31T04:23:38;10.70;1.00
3312;DHT22;1668;49.648;8.570;2023-03-31T04:26:07;10.70;1.00
3312;DHT22;1668;49.648;8.570;2023-03-31T04:28:34;10.60;1.00
3312;DHT22;1668;49.648;8.570;2023-03-31T04:31:02;10.70;99.90
3312;DHT22;1668;49.648;8.570;2023-03-31T04:33:31;10.70;1.00
3312;DHT22;1668;49.648;8.570;2023-03-31T04:36:00;10.70;1.00
3312;DHT22;1668;49.648;8.570;2023-03-31T04:38:32;10.70;1.00
3312;DHT22;1668;49.648;8.570;2023-03-31T04:40:59;10.70;1.00
3312;DHT22;1668;49.648;8.570;2023-03-31T04:43:26;10.60;1.00
3312;DHT22;1668;49.648;8.570;2023-03-31T04:45:52;10.60;1.00
3312;DHT22;1668;49.648;8.570;2023-03-31T04:48:19;10.60;1.00
3312;DHT22;1668;49.648;8.570;2023-03-31T04:50:46;10.60;1.00
3312;DHT22;1668;49.648;8.570;2023-03-31T04:53:14;10.60;1.00
3312;DHT22;1668;49.648;8.570;2023-03-31T04:55:41;10.60;1.00
3312;DHT22;1668;49.648;8.570;2023-03-31T04:58:08;10.60;1.00
3312;DHT22;1668;49.648;8.570;2023-03-31T05:00:34;10.60;1.00
3312;DHT22;1668;49.648;8.570;2023-03-31T05:03:01;10.60;1.00
3312;DHT22;1668;49.648;8.570;2023-03-31T05:05:28;10.60;1.00
3312;DHT22;1668;49.648;8.570;2023-03-31T05:07:55;10.60;1.00
3312;DHT22;1668;49.648;8.570;2023-03-31T05:10:23;10.50;1.00
3312;DHT22;1668;49.648;8.570;2023-03-31T05:12:50;10.50;1.00
3312;DHT22;1668;49.648;8.570;2023-03-31T05:15:17;10.50;1.00
3312;DHT22;1668;49.648;8.570;2023-03-31T05:17:45;10.50;1.00
3312;DHT22;1668;49.648;8.570;2023-03-31T05:20:12;10.50;1.00
3312;DHT22;1668;49.648;8.570;2023-03-31T05:22:40;10.50;7.20
3312;DHT22;1668;49.648;8.570;2023-03-31T05:25:08;10.50;25.50
3312;DHT22;1668;49.648;8.570;2023-03-31T05:27:37;10.40;33.10
3312;DHT22;1668;49.648;8.570;2023-03-31T05:30:05;10.40;53.90
3312;DHT22;1668;49.648;8.570;2023-03-31T05:32:32;10.40;78.00
3312;DHT22;1668;49.648;8.570;2023-03-31T05:34:59;10.40;99.00
3312;DHT22;1668;49.648;8.570;2023-03-31T05:37:26;10.40;99.90
3312;DHT22;1668;49.648;8.570;2023-03-31T05:39:53;10.40;99.90
3312;DHT22;1668;49.648;8.570;2023-03-31T05:42:20;10.40;99.90
3312;DHT22;1668;49.648;8.570;2023-03-31T05:44:48;10.40;99.90
3312;DHT22;1668;49.648;8.570;2023-03-31T05:47:15;10.40;99.90
3312;DHT22;1668;49.648;8.570;2023-03-31T05:49:42;10.30;99.90
3312;DHT22;1668;49.648;8.570;2023-03-31T05:52:09;10.30;99.90
3312;DHT22;1668;49.648;8.570;2023-03-31T05:54:36;10.30;99.90
3312;DHT22;1668;49.648;8.570;2023-03-31T05:57:03;10.30;99.90
3312;DHT22;1668;49.648;8.570;2023-03-31T05:59:30;10.30;99.90
3312;DHT22;1668;49.648;8.570;2023-03-31T06:01:58;10.30;99.90
3312;DHT22;1668;49.648;8.570;2023-03-31T06:04:25;10.30;99.90
3312;DHT22;1668;49.648;8.570;2023-03-31T06:06:52;10.30;99.90
3312;DHT22;1668;49.648;8.570;2023-03-31T06:09:20;10.30;99.90
3312;DHT22;1668;49.648;8.570;2023-03-31T06:11:47;10.20;99.90
3312;DHT22;1668;49.648;8.570;2023-03-31T06:14:14;10.20;99.90
3312;DHT22;1668;49.648;8.570;2023-03-31T06:16:41;10.20;99.90
3312;DHT22;1668;49.648;8.570;2023-03-31T06:19:09;10.20;99.90
3312;DHT22;1668;49.648;8.570;2023-03-31T06:21:36;10.20;99.90
3312;DHT22;1668;49.648;8.570;2023-03-31T06:24:02;10.10;99.90
3312;DHT22;1668;49.648;8.570;2023-03-31T06:26:29;10.20;99.90
3312;DHT22;1668;49.648;8.570;2023-03-31T06:28:56;10.10;99.90
3312;DHT22;1668;49.648;8.570;2023-03-31T06:31:23;10.20;99.90
3312;DHT22;1668;49.648;8.570;2023-03-31T06:33:51;10.20;99.90
3312;DHT22;1668;49.648;8.570;2023-03-31T06:36:20;10.20;99.90
3312;DHT22;1668;49.648;8.570;2023-03-31T06:38:48;10.20;99.90
3312;DHT22;1668;49.648;8.570;2023-03-31T06:41:16;10.20;99.90
3312;DHT22;1668;49.648;8.570;2023-03-31T06:43:45;10.20;99.90
3312;DHT22;1668;49.648;8.570;2023-03-31T06:46:12;10.20;99.90
3312;DHT22;1668;49.648;8.570;2023-03-31T06:48:39;10.20;99.90
3312;DHT22;1668;49.648;8.570;2023-03-31T06:51:07;10.20;99.90
3312;DHT22;1668;49.648;8.570;2023-03-31T06:53:35;10.20;99.90
3312;DHT22;1668;49.648;8.570;2023-03-31T06:56:03;10.20;99.90
3312;DHT22;1668;49.648;8.570;2023-03-31T06:58:34;10.30;99.90
3312;DHT22;1668;49.648;8.570;2023-03-31T07:01:03;10.20;99.90
3312;DHT22;1668;49.648;8.570;2023-03-31T07:03:31;10.30;99.90
3312;DHT22;1668;49.648;8.570;2023-03-31T07:05:58;10.30;99.90
3312;DHT22;1668;49.648;8.570;2023-03-31T07:08:25;10.30;99.90
3312;DHT22;1668;49.648;8.570;2023-03-31T07:10:55;10.30;99.90
3312;DHT22;1668;49.648;8.570;2023-03-31T07:13:23;10.30;99.90
3312;DHT22;1668;49.648;8.570;2023-03-31T07:15:50;10.40;99.90
3312;DHT22;1668;49.648;8.570;2023-03-31T07:18:17;10.40;99.90
3312;DHT22;1668;49.648;8.570;2023-03-31T07:20:47;10.40;99.90
3312;DHT22;1668;49.648;8.570;2023-03-31T07:23:15;10.40;99.90
3312;DHT22;1668;49.648;8.570;2023-03-31T07:25:42;10.40;99.90
3312;DHT22;1668;49.648;8.570;2023-03-31T07:28:11;10.50;99.90
3312;DHT22;1668;49.648;8.570;2023-03-31T07:30:39;10.40;99.90
3312;DHT22;1668;49.648;8.570;2023-03-31T07:33:06;10.40;99.90
3312;DHT22;1668;49.648;8.570;2023-03-31T07:35:33;10.50;99.90
3312;DHT22;1668;49.648;8.570;2023-03-31T07:38:02;10.50;99.90
3312;DHT22;1668;49.648;8.570;2023-03-31T07:40:29;10.50;99.90
3312;DHT22;1668;49.648;8.570;2023-03-31T07:42:56;10.50;99.90
3312;DHT22;1668;49.648;8.570;2023-03-31T07:45:25;10.50;99.90
3312;DHT22;1668;49.648;8.570;2023-03-31T07:47:53;10.50;99.90
3312;DHT22;1668;49.648;8.570;2023-03-31T07:50:21;10.50;99.90
3312;DHT22;1668;49.648;8.570;2023-03-31T07:52:48;10.60;99.90
3312;DHT22;1668;49.648;8.570;2023-03-31T07:55:16;10.60;99.90
3312;DHT22;1668;49.648;8.570;2023-03-31T07:57:44;10.60;99.90
3312;DHT22;1668;49.648;8.570;2023-03-31T08:00:14;10.50;99.90
3312;DHT22;1668;49.648;8.570;2023-03-31T08:02:42;10.50;99.90
3312;DHT22;1668;49.648;8.570;2023-03-31T08:05:11;10.50;99.90
3312;DHT22;1668;49.648;8.570;2023-03-31T08:07:39;10.50;99.90
3312;DHT22;1668;49.648;8.570;2023-03-31T08:10:09;10.50;99.90
3312;DHT22;1668;49.648;8.570;2023-03-31T08:12:36;10.50;99.90
3312;DHT22;1668;49.648;8.570;2023-03-31T08:15:04;10.60;99.90
3312;DHT22;1668;49.648;8.570;2023-03-31T08:17:31;10.60;99.90
3312;DHT22;1668;49.648;8.570;2023-03-31T08:19:59;10.60;99.90
3312;DHT22;1668;49.648;8.570;2023-03-31T08:22:26;10.60;99.90
3312;DHT22;1668;49.648;8.570;2023-03-31T08:24:53;10.60;99.90
3312;DHT22;1668;49.648;8.570;2023-03-31T08:27:20;10.70;99.90
3312;DHT22;1668;49.648;8.570;2023-03-31T08:29:47;10.60;99.90
3312;DHT22;1668;49.648;8.570;2023-03-31T08:32:14;10.60;99.90
3312;DHT22;1668;49.648;8.570;2023-03-31T08:34:41;10.60;99.90
3312;DHT22;1668;49.648;8.570;2023-03-31T08:37:09;10.60;99.90
3312;DHT22;1668;49.648;8.570;2023-03-31T08:39:36;10.60;99.90
3312;DHT22;1668;49.648;8.570;2023-03-31T08:42:07;10.60;99.90
3312;DHT22;1668;49.648;8.570;2023-03-31T08:44:39;10.60;99.90
3312;DHT22;1668;49.648;8.570;2023-03-31T08:47:13;10.60;99.90
3312;DHT22;1668;49.648;8.570;2023-03-31T08:49:44;10.60;99.90
3312;DHT22;1668;49.648;8.570;2023-03-31T08:52:17;10.60;99.90
3312;DHT22;1668;49.648;8.570;2023-03-31T08:54:46;10.60;99.90
3312;DHT22;1668;49.648;8.570;2023-03-31T08:57:17;10.70;99.90
3312;DHT22;1668;49.648;8.570;2023-03-31T08:59:46;10.70;99.90
3312;DHT22;1668;49.648;8.570;2023-03-31T09:02:20;10.70;99.90
3312;DHT22;1668;49.648;8.570;2023-03-31T09:05:05;10.70;99.90
3312;DHT22;1668;49.648;8.570;2023-03-31T09:07:45;10.70;99.90
3312;DHT22;1668;49.648;8.570;2023-03-31T09:10:24;10.80;99.90
3312;DHT22;1668;49.648;8.570;2023-03-31T09:12:56;10.80;99.90
3312;DHT22;1668;49.648;8.570;2023-03-31T09:15:34;10.80;99.90
3312;DHT22;1668;49.648;8.570;2023-03-31T09:18:09;10.80;99.90
3312;DHT22;1668;49.648;8.570;2023-03-31T09:20:44;10.90;99.90
3312;DHT22;1668;49.648;8.570;2023-03-31T09:23:21;11.00;99.90
3312;DHT22;1668;49.648;8.570;2023-03-31T09:25:51;11.00;99.90
3312;DHT22;1668;49.648;8.570;2023-03-31T09:28:20;11.00;99.90
3312;DHT22;1668;49.648;8.570;2023-03-31T09:30:48;11.00;99.90
3312;DHT22;1668;49.648;8.570;2023-03-31T09:33:17;11.00;99.90
3312;DHT22;1668;49.648;8.570;2023-03-31T09:35:45;11.00;99.90
3312;DHT22;1668;49.648;8.570;2023-03-31T09:38:13;11.00;99.90
3312;DHT22;1668;49.648;8.570;2023-03-31T09:40:42;10.80;99.90
3312;DHT22;1668;49.648;8.570;2023-03-31T09:43:17;10.70;99.90
3312;DHT22;1668;49.648;8.570;2023-03-31T09:45:45;10.60;99.90
3312;DHT22;1668;49.648;8.570;2023-03-31T09:48:17;10.50;99.90
3312;DHT22;1668;49.648;8.570;2023-03-31T09:50:48;10.40;99.90
3312;DHT22;1668;49.648;8.570;2023-03-31T09:53:19;10.30;99.90
3312;DHT22;1668;49.648;8.570;2023-03-31T09:55:52;10.30;99.90
3312;DHT22;1668;49.648;8.570;2023-03-31T09:58:21;10.20;99.90
3312;DHT22;1668;49.648;8.570;2023-03-31T10:00:58;10.20;99.90
3312;DHT22;1668;49.648;8.570;2023-03-31T10:03:25;10.20;65.00
3312;DHT22;1668;49.648;8.570;2023-03-31T10:05:55;10.20;87.00
3312;DHT22;1668;49.648;8.570;2023-03-31T10:08:26;10.20;92.10
3312;DHT22;1668;49.648;8.570;2023-03-31T10:10:57;10.20;61.50
3312;DHT22;1668;49.648;8.570;2023-03-31T10:13:40;10.30;99.90
3312;DHT22;1668;49.648;8.570;2023-03-31T10:16:12;10.20;99.90
3312;DHT22;1668;49.648;8.570;2023-03-31T10:18:41;10.30;99.90
3312;DHT22;1668;49.648;8.570;2023-03-31T10:21:19;10.30;72.90
3312;DHT22;1668;49.648;8.570;2023-03-31T10:23:47;10.40;99.90
3312;DHT22;1668;49.648;8.570;2023-03-31T10:26:18;10.50;93.70
3312;DHT22;1668;49.648;8.570;2023-03-31T10:28:47;10.60;50.70
3312;DHT22;1668;49.648;8.570;2023-03-31T10:31:15;10.60;34.60
3312;DHT22;1668;49.648;8.570;2023-03-31T10:33:44;10.70;6.30
3312;DHT22;1668;49.648;8.570;2023-03-31T10:36:17;10.80;97.10
3312;DHT22;1668;49.648;8.570;2023-03-31T10:38:47;10.90;73.90
3312;DHT22;1668;49.648;8.570;2023-03-31T10:41:19;11.00;99.90
3312;DHT22;1668;49.648;8.570;2023-03-31T10:43:49;11.00;99.90
3312;DHT22;1668;49.648;8.570;2023-03-31T10:46:17;11.00;99.90
3312;DHT22;1668;49.648;8.570;2023-03-31T10:48:44;11.00;99.90
3312;DHT22;1668;49.648;8.570;2023-03-31T10:51:15;11.00;99.90
3312;DHT22;1668;49.648;8.570;2023-03-31T10:53:43;11.00;99.90
3312;DHT22;1668;49.648;8.570;2023-03-31T10:56:33;11.00;99.90
3312;DHT22;1668;49.648;8.570;2023-03-31T10:59:14;11.10;99.90
3312;DHT22;1668;49.648;8.570;2023-03-31T11:01:55;11.20;99.90
3312;DHT22;1668;49.648;8.570;2023-03-31T11:04:45;11.30;99.90
3312;DHT22;1668;49.648;8.570;2023-03-31T11:07:27;11.40;99.90
3312;DHT22;1668;49.648;8.570;2023-03-31T11:10:08;11.50;99.90
3312;DHT22;1668;49.648;8.570;2023-03-31T11:12:44;11.50;99.90
3312;DHT22;1668;49.648;8.570;2023-03-31T11:15:19;11.50;99.90
3312;DHT22;1668;49.648;8.570;2023-03-31T11:18:03;11.50;99.90
3312;DHT22;1668;49.648;8.570;2023-03-31T11:20:35;11.50;99.90
3312;DHT22;1668;49.648;8.570;2023-03-31T11:23:16;11.50;99.90
3312;DHT22;1668;49.648;8.570;2023-03-31T11:25:50;11.50;99.90
3312;DHT22;1668;49.648;8.570;2023-03-31T11:28:28;11.50;99.90
3312;DHT22;1668;49.648;8.570;2023-03-31T11:31:07;11.50;99.90
3312;DHT22;1668;49.648;8.570;2023-03-31T11:36:50;11.60;75.70
3312;DHT22;1668;49.648;8.570;2023-03-31T11:39:31;11.70;1.00
3312;DHT22;1668;49.648;8.570;2023-03-31T11:42:04;11.80;1.00
3312;DHT22;1668;49.648;8.570;2023-03-31T11:44:39;11.90;1.00
3312;DHT22;1668;49.648;8.570;2023-03-31T11:47:09;11.90;1.00
3312;DHT22;1668;49.648;8.570;2023-03-31T11:49:40;12.00;1.00
3312;DHT22;1668;49.648;8.570;2023-03-31T11:52:13;12.20;1.00
3312;DHT22;1668;49.648;8.570;2023-03-31T11:54:45;12.30;1.00
3312;DHT22;1668;49.648;8.570;2023-03-31T11:57:20;12.50;1.00
3312;DHT22;1668;49.648;8.570;2023-03-31T11:59:53;12.50;1.00
3312;DHT22;1668;49.648;8.570;2023-03-31T12:02:30;12.60;1.00
3312;DHT22;1668;49.648;8.570;2023-03-31T12:05:02;12.80;40.70
3312;DHT22;1668;49.648;8.570;2023-03-31T12:07:33;12.80;55.20
3312;DHT22;1668;49.648;8.570;2023-03-31T12:10:10;12.80;1.00
3312;DHT22;1668;49.648;8.570;2023-03-31T12:12:42;12.80;1.00
3312;DHT22;1668;49.648;8.570;2023-03-31T12:15:16;12.90;1.00
3312;DHT22;1668;49.648;8.570;2023-03-31T12:17:48;13.00;1.00
3312;DHT22;1668;49.648;8.570;2023-03-31T12:20:27;13.10;1.00
3312;DHT22;1668;49.648;8.570;2023-03-31T12:22:54;13.20;99.90
3312;DHT22;1668;49.648;8.570;2023-03-31T12:25:23;13.40;99.90
3312;DHT22;1668;49.648;8.570;2023-03-31T12:27:51;13.60;99.90
3312;DHT22;1668;49.648;8.570;2023-03-31T12:30:27;13.80;99.90
3312;DHT22;1668;49.648;8.570;2023-03-31T12:33:00;13.90;1.00
3312;DHT22;1668;49.648;8.570;2023-03-31T12:35:34;14.00;99.90
3312;DHT22;1668;49.648;8.570;2023-03-31T12:38:22;14.10;99.90
3312;DHT22;1668;49.648;8.570;2023-03-31T12:40:57;14.20;1.00
3312;DHT22;1668;49.648;8.570;2023-03-31T12:43:50;14.30;1.00
3312;DHT22;1668;49.648;8.570;2023-03-31T12:49:27;14.20;1.00
3312;DHT22;1668;49.648;8.570;2023-03-31T12:52:01;14.20;99.90
3312;DHT22;1668;49.648;8.570;2023-03-31T12:57:30;14.20;1.00
3312;DHT22;1668;49.648;8.570;2023-03-31T13:00:21;14.20;99.90
3312;DHT22;1668;49.648;8.570;2023-03-31T13:05:58;14.10;99.90
3312;DHT22;1668;49.648;8.570;2023-03-31T13:08:55;14.10;99.90
3312;DHT22;1668;49.648;8.570;2023-03-31T13:11:36;14.10;99.90
3312;DHT22;1668;49.648;8.570;2023-03-31T13:14:12;14.10;99.90
3312;DHT22;1668;49.648;8.570;2023-03-31T13:16:41;14.00;99.90
3312;DHT22;1668;49.648;8.570;2023-03-31T13:19:12;13.90;99.90
3312;DHT22;1668;49.648;8.570;2023-03-31T13:21:53;13.90;1.00
3312;DHT22;1668;49.648;8.570;2023-03-31T13:24:21;13.90;88.30
3312;DHT22;1668;49.648;8.570;2023-03-31T13:26:49;13.90;32.00
3312;DHT22;1668;49.648;8.570;2023-03-31T13:29:22;13.90;1.00
3312;DHT22;1668;49.648;8.570;2023-03-31T13:32:18;13.80;1.00
3312;DHT22;1668;49.648;8.570;2023-03-31T13:34:58;13.80;99.90
3312;DHT22;1668;49.648;8.570;2023-03-31T13:40:54;13.60;99.90
3312;DHT22;1668;49.648;8.570;2023-03-31T13:43:39;13.60;1.00
3312;DHT22;1668;49.648;8.570;2023-03-31T13:49:51;13.60;99.90
3312;DHT22;1668;49.648;8.570;2023-03-31T13:52:30;13.60;99.90
3312;DHT22;1668;49.648;8.570;2023-03-31T13:55:45;13.60;99.90
3312;DHT22;1668;49.648;8.570;2023-03-31T14:01:38;13.60;1.00
3312;DHT22;1668;49.648;8.570;2023-03-31T14:04:15;13.60;1.00
3312;DHT22;1668;49.648;8.570;2023-03-31T14:06:55;13.50;1.00
3312;DHT22;1668;49.648;8.570;2023-03-31T14:09:28;13.60;99.90
3312;DHT22;1668;49.648;8.570;2023-03-31T14:11:57;13.60;1.00
3312;DHT22;1668;49.648;8.570;2023-03-31T14:14:24;13.60;1.00
3312;DHT22;1668;49.648;8.570;2023-03-31T14:16:53;13.60;1.00
3312;DHT22;1668;49.648;8.570;2023-03-31T14:19:46;13.60;1.00
3312;DHT22;1668;49.648;8.570;2023-03-31T14:22:25;13.60;99.90
3312;DHT22;1668;49.648;8.570;2023-03-31T14:24:57;13.70;1.00
3312;DHT22;1668;49.648;8.570;2023-03-31T14:27:41;13.60;1.00
3312;DHT22;1668;49.648;8.570;2023-03-31T14:30:15;13.60;69.40
3312;DHT22;1668;49.648;8.570;2023-03-31T14:32:52;13.70;99.90
3312;DHT22;1668;49.648;8.570;2023-03-31T14:35:27;13.80;1.00
3312;DHT22;1668;49.648;8.570;2023-03-31T14:37:59;13.90;1.00
3312;DHT22;1668;49.648;8.570;2023-03-31T14:40:29;14.10;99.90
3312;DHT22;1668;49.648;8.570;2023-03-31T14:42:56;14.10;1.00
3312;DHT22;1668;49.648;8.570;2023-03-31T14:45:25;14.10;1.00
3312;DHT22;1668;49.648;8.570;2023-03-31T14:47:57;14.10;1.00
3312;DHT22;1668;49.648;8.570;2023-03-31T14:50:28;14.00;1.00
3312;DHT22;1668;49.648;8.570;2023-03-31T14:52:58;13.90;99.90
3312;DHT22;1668;49.648;8.570;2023-03-31T14:55:28;13.90;99.90
3312;DHT22;1668;49.648;8.570;2023-03-31T14:57:56;13.80;1.00
3312;DHT22;1668;49.648;8.570;2023-03-31T15:00:27;13.80;1.00
3312;DHT22;1668;49.648;8.570;2023-03-31T15:02:54;13.70;1.00
3312;DHT22;1668;49.648;8.570;2023-03-31T15:05:27;13.60;1.00
3312;DHT22;1668;49.648;8.570;2023-03-31T15:07:58;13.50;1.00
3312;DHT22;1668;49.648;8.570;2023-03-31T15:10:31;13.40;1.00
3312;DHT22;1668;49.648;8.570;2023-03-31T15:13:01;13.20;1.00
3312;DHT22;1668;49.648;8.570;2023-03-31T15:15:32;13.00;99.90
3312;DHT22;1668;49.648;8.570;2023-03-31T15:18:00;12.60;1.00
3312;DHT22;1668;49.648;8.570;2023-03-31T15:20:29;12.50;99.90
3312;DHT22;1668;49.648;8.570;2023-03-31T15:22:58;12.40;68.60
3312;DHT22;1668;49.648;8.570;2023-03-31T15:25:30;12.20;99.90
3312;DHT22;1668;49.648;8.570;2023-03-31T15:28:00;12.10;99.90
3312;DHT22;1668;49.648;8.570;2023-03-31T15:30:29;12.00;1.00
3312;DHT22;1668;49.648;8.570;2023-03-31T15:32:56;12.00;99.90
3312;DHT22;1668;49.648;8.570;2023-03-31T15:35:27;12.00;99.90
3312;DHT22;1668;49.648;8.570;2023-03-31T15:37:56;11.90;1.00
3312;DHT22;1668;49.648;8.570;2023-03-31T15:40:27;12.00;1.00
3312;DHT22;1668;49.648;8.570;2023-03-31T15:42:56;12.10;81.70
3312;DHT22;1668;49.648;8.570;2023-03-31T15:45:45;12.00;99.90
3312;DHT22;1668;49.648;8.570;2023-03-31T15:48:18;12.00;99.90
3312;DHT22;1668;49.648;8.570;2023-03-31T15:50:46;12.00;99.90
3312;DHT22;1668;49.648;8.570;2023-03-31T15:53:29;11.90;99.90
3312;DHT22;1668;49.648;8.570;2023-03-31T15:55:58;11.90;1.00
3312;DHT22;1668;49.648;8.570;2023-03-31T15:58:45;11.90;1.00
3312;DHT22;1668;49.648;8.570;2023-03-31T16:01:13;11.90;1.00
3312;DHT22;1668;49.648;8.570;2023-03-31T16:03:43;11.90;1.00
3312;DHT22;1668;49.648;8.570;2023-03-31T16:06:16;11.90;1.00
3312;DHT22;1668;49.648;8.570;2023-03-31T16:08:47;12.00;1.00
3312;DHT22;1668;49.648;8.570;2023-03-31T16:11:19;12.00;1.00
3312;DHT22;1668;49.648;8.570;2023-03-31T16:13:50;12.00;1.00
3312;DHT22;1668;49.648;8.570;2023-03-31T16:16:22;12.00;1.00
3312;DHT22;1668;49.648;8.570;2023-03-31T16:18:50;12.00;1.00
3312;DHT22;1668;49.648;8.570;2023-03-31T16:21:21;12.00;1.00
3312;DHT22;1668;49.648;8.570;2023-03-31T16:23:50;12.00;1.00
3312;DHT22;1668;49.648;8.570;2023-03-31T16:26:21;12.00;99.90
3312;DHT22;1668;49.648;8.570;2023-03-31T16:28:49;12.00;99.90
3312;DHT22;1668;49.648;8.570;2023-03-31T16:31:32;12.00;99.90
3312;DHT22;1668;49.648;8.570;2023-03-31T16:34:01;11.90;1.00
3312;DHT22;1668;49.648;8.570;2023-03-31T16:36:28;11.90;1.00
3312;DHT22;1668;49.648;8.570;2023-03-31T16:38:55;11.90;1.00
3312;DHT22;1668;49.648;8.570;2023-03-31T16:41:26;11.90;99.90
3312;DHT22;1668;49.648;8.570;2023-03-31T16:43:53;11.90;1.00
3312;DHT22;1668;49.648;8.570;2023-03-31T16:46:21;11.90;99.90
3312;DHT22;1668;49.648;8.570;2023-03-31T16:48:48;11.90;99.90
3312;DHT22;1668;49.648;8.570;2023-03-31T16:51:15;11.80;1.00
3312;DHT22;1668;49.648;8.570;2023-03-31T16:53:43;11.80;1.00
3312;DHT22;1668;49.648;8.570;2023-03-31T16:56:10;11.80;1.00
3312;DHT22;1668;49.648;8.570;2023-03-31T16:58:40;11.80;1.00
3312;DHT22;1668;49.648;8.570;2023-03-31T17:01:07;11.80;99.90
3312;DHT22;1668;49.648;8.570;2023-03-31T17:03:34;11.80;1.00
3312;DHT22;1668;49.648;8.570;2023-03-31T17:06:07;11.80;99.90